createdAt,value
2018-09-14T00:01:25.546Z,99164.58
2018-09-14T00:04:30.522Z,99165.89
2018-09-14T00:07:35.794Z,99164.44
2018-09-14T00:10:40.737Z,99168.88
2018-09-14T00:13:45.891Z,99170.94
2018-09-14T00:16:50.869Z,99158.89
2018-09-14T00:19:55.889Z,99165.30
2018-09-14T00:23:00.817Z,99160.05
2018-09-14T00:26:05.940Z,99161.41
2018-09-14T00:29:10.854Z,99166.34
2018-09-14T00:32:15.781Z,99165.88
2018-09-14T00:35:20.725Z,99160.42
2018-09-14T00:38:25.654Z,99162.64
2018-09-14T00:41:30.593Z,99162.04
2018-09-14T00:44:35.540Z,99166.83
2018-09-14T00:47:40.496Z,99162.77
2018-09-14T00:50:45.500Z,99163.91
2018-09-14T00:53:50.445Z,99160.91
2018-09-14T00:56:55.393Z,99165.88
2018-09-14T01:00:00.346Z,99164.83
2018-09-14T01:03:05.333Z,99165.39
2018-09-14T01:06:10.283Z,99160.67
2018-09-14T01:09:20.969Z,99165.39
2018-09-14T01:12:25.983Z,99170.94
2018-09-14T01:15:30.953Z,99169.95
2018-09-14T01:18:35.923Z,99173.84
2018-09-14T01:21:40.909Z,99174.64
2018-09-14T01:24:45.874Z,99173.50
2018-09-14T01:27:50.834Z,99175.12
2018-09-14T01:30:55.809Z,99177.20
2018-09-14T01:34:00.749Z,99178.19
2018-09-14T01:37:05.731Z,99171.22
2018-09-14T01:40:10.689Z,99175.43
2018-09-14T01:43:15.637Z,99164.73
2018-09-14T01:46:20.589Z,99174.45
2018-09-14T01:49:25.516Z,99173.66
2018-09-14T01:52:30.449Z,99174.89
2018-09-14T01:55:35.400Z,99170.59
2018-09-14T01:58:40.330Z,99168.63
2018-09-14T02:01:45.273Z,99167.14
2018-09-14T02:04:50.249Z,99160.48
2018-09-14T02:07:55.172Z,99158.72
2018-09-14T02:11:00.105Z,99163.44
2018-09-14T02:14:05.053Z,99166.50
2018-09-14T02:17:09.998Z,99157.58
2018-09-14T02:20:16.111Z,99156.92
2018-09-14T02:23:21.085Z,99156.44
2018-09-14T02:26:26.038Z,99156.41
2018-09-14T02:29:30.967Z,99155.27
2018-09-14T02:32:36.358Z,99153.62
2018-09-14T02:35:41.285Z,99150.39
2018-09-14T02:38:46.226Z,99155.94
2018-09-14T02:41:51.174Z,99150.14
2018-09-14T02:44:56.093Z,99148.42
2018-09-14T02:48:01.099Z,99148.73
2018-09-14T02:51:06.057Z,99152.12
2018-09-14T02:54:11.030Z,99148.27
2018-09-14T02:57:16.007Z,99151.23
2018-09-14T03:00:20.932Z,99149.13
2018-09-14T03:03:25.869Z,99152.84
2018-09-14T03:06:30.796Z,99149.41
2018-09-14T03:09:35.757Z,99145.83
2018-09-14T03:12:40.697Z,99138.59
2018-09-14T03:15:45.672Z,99140.44
2018-09-14T03:18:50.602Z,99144.33
2018-09-14T03:21:55.531Z,99136.86
2018-09-14T03:25:00.470Z,99137.38
2018-09-14T03:28:05.463Z,99146.81
2018-09-14T03:31:10.418Z,99140.96
2018-09-14T03:34:15.361Z,99141.21
2018-09-14T03:37:20.284Z,99145.16
2018-09-14T03:40:25.222Z,99151.41
2018-09-14T03:43:30.167Z,99146.68
2018-09-14T03:46:35.114Z,99145.38
2018-09-14T03:49:40.052Z,99147.92
2018-09-14T03:52:44.980Z,99146.75
2018-09-14T03:55:49.928Z,99151.67
2018-09-14T03:58:54.872Z,99153.31
2018-09-14T04:01:59.813Z,99155.50
2018-09-14T04:05:04.825Z,99154.82
2018-09-14T04:08:09.795Z,99152.12
2018-09-14T04:11:14.741Z,99154.62
2018-09-14T04:14:19.669Z,99159.78
2018-09-14T04:17:24.591Z,99155.63
2018-09-14T04:20:29.525Z,99157.06
2018-09-14T04:23:34.575Z,99155.44
2018-09-14T04:26:39.421Z,99150.19
2018-09-14T04:29:44.353Z,99153.59
2018-09-14T04:32:49.269Z,99157.58
2018-09-14T04:35:54.206Z,99156.14
2018-09-14T04:38:59.156Z,99159.41
2018-09-14T04:42:04.092Z,99156.47
2018-09-14T04:45:09.023Z,99158.90
2018-09-14T04:48:13.954Z,99161.61
2018-09-14T04:51:18.939Z,99153.00
2018-09-14T04:54:23.853Z,99153.33
2018-09-14T04:57:28.865Z,99154.19
2018-09-14T05:00:33.726Z,99152.60
2018-09-14T05:03:38.681Z,99144.76
2018-09-14T05:06:43.625Z,99144.13
2018-09-14T05:09:48.586Z,99145.23
2018-09-14T05:12:53.493Z,99137.55
2018-09-14T05:15:58.414Z,99149.22
2018-09-14T05:19:03.401Z,99146.52
2018-09-14T05:22:08.359Z,99146.52
2018-09-14T05:25:13.436Z,99149.68
2018-09-14T05:28:18.354Z,99155.91
2018-09-14T05:31:23.524Z,99145.53
2018-09-14T05:34:28.582Z,99145.07
2018-09-14T05:37:33.690Z,99147.04
2018-09-14T05:40:38.641Z,99145.43
2018-09-14T05:43:43.592Z,99151.28
2018-09-14T05:46:48.569Z,99158.19
2018-09-14T05:49:53.546Z,99164.88
2018-09-14T05:52:58.534Z,99165.45
2018-09-14T05:56:03.533Z,99174.27
2018-09-14T05:59:08.498Z,99170.94
2018-09-14T06:02:13.511Z,99175.30
2018-09-14T06:05:18.525Z,99184.38
2018-09-14T06:08:23.488Z,99182.03
2018-09-14T06:11:28.466Z,99189.56
2018-09-14T06:14:33.842Z,99191.29
2018-09-14T06:17:38.817Z,99194.98
2018-09-14T06:20:43.808Z,99202.23
2018-09-14T06:23:48.946Z,99196.36
2018-09-14T06:26:53.946Z,99201.89
2018-09-14T06:29:59.129Z,99199.80
2018-09-14T06:33:04.074Z,99193.63
2018-09-14T06:36:09.033Z,99194.63
2018-09-14T06:39:13.969Z,99198.52
2018-09-14T06:42:18.934Z,99200.45
2018-09-14T06:45:24.068Z,99200.63
2018-09-14T06:48:28.949Z,99201.33
2018-09-14T06:51:35.117Z,99210.57
2018-09-14T06:54:40.070Z,99207.56
2018-09-14T06:57:45.021Z,99209.44
2018-09-14T07:00:50.149Z,99206.59
2018-09-14T07:03:55.242Z,99212.41
2018-09-14T07:07:00.219Z,99210.63
2018-09-14T07:10:05.184Z,99211.92
2018-09-14T07:13:10.122Z,99216.03
2018-09-14T07:16:15.061Z,99225.73
2018-09-14T07:19:19.993Z,99226.75
2018-09-14T07:22:24.971Z,99225.13
2018-09-14T07:25:29.881Z,99220.43
2018-09-14T07:28:34.860Z,99210.11
2018-09-14T07:31:39.910Z,99216.75
2018-09-14T07:34:44.770Z,99222.10
2018-09-14T07:37:49.720Z,99223.97
2018-09-14T07:40:54.670Z,99229.41
2018-09-14T07:43:59.624Z,99229.02
2018-09-14T07:47:04.822Z,99229.77
2018-09-14T07:50:09.774Z,99222.77
2018-09-14T07:53:14.741Z,99219.03
2018-09-14T07:56:19.788Z,99220.12
2018-09-14T07:59:24.733Z,99223.58
2018-09-14T08:02:29.716Z,99226.73
2018-09-14T08:05:34.656Z,99224.67
2018-09-14T08:08:39.665Z,99224.05
2018-09-14T08:11:44.621Z,99226.22
2018-09-14T08:14:49.564Z,99226.16
2018-09-14T08:17:54.516Z,99233.41
2018-09-14T08:20:59.505Z,99230.71
2018-09-14T08:24:04.425Z,99225.52
2018-09-14T08:27:09.417Z,99235.50
2018-09-14T08:30:14.318Z,99238.25
2018-09-14T08:33:19.252Z,99242.32
2018-09-14T08:36:24.193Z,99242.23
2018-09-14T08:39:29.113Z,99245.00
2018-09-14T08:42:34.297Z,99244.30
2018-09-14T08:45:39.245Z,99250.22
2018-09-14T08:48:44.185Z,99248.48
2018-09-14T08:51:49.129Z,99248.95
2018-09-14T08:54:54.108Z,99251.77
2018-09-14T08:57:59.329Z,99249.90
2018-09-14T09:01:04.649Z,99250.95
2018-09-14T09:04:10.679Z,99246.68
2018-09-14T09:07:15.718Z,99245.87
2018-09-14T09:10:20.689Z,99246.59
2018-09-14T09:13:25.766Z,99249.11
2018-09-14T09:16:30.741Z,99242.94
2018-09-14T09:19:35.859Z,99245.13
2018-09-14T09:22:40.825Z,99242.53
2018-09-14T09:25:45.904Z,99247.98
2018-09-14T09:28:50.855Z,99247.64
2018-09-14T09:31:55.910Z,99243.61
2018-09-14T09:35:00.880Z,99237.48
2018-09-14T09:38:05.934Z,99238.45
2018-09-14T09:41:10.893Z,99243.23
2018-09-14T09:44:15.858Z,99243.17
2018-09-14T09:47:20.869Z,99240.53
2018-09-14T09:50:25.885Z,99237.64
2018-09-14T09:53:30.821Z,99232.16
2018-09-14T09:56:35.927Z,99229.72
2018-09-14T10:03:27.183Z,99231.37
2018-09-14T10:06:32.058Z,99235.33
2018-09-14T10:09:36.989Z,99235.31
2018-09-14T10:12:41.925Z,99229.49
2018-09-14T10:15:46.858Z,99232.08
2018-09-14T10:18:51.823Z,99229.89
2018-09-14T10:21:56.766Z,99221.67
2018-09-14T10:25:01.684Z,99219.09
2018-09-14T10:28:06.653Z,99225.24
2018-09-14T10:31:11.575Z,99224.30
2018-09-14T10:34:16.513Z,99217.81
2018-09-14T10:37:21.466Z,99220.09
2018-09-14T10:40:26.436Z,99213.00
2018-09-14T10:43:31.362Z,99200.98
2018-09-14T10:46:36.305Z,99194.16
2018-09-14T10:49:41.477Z,99192.59
2018-09-14T10:52:46.533Z,99189.60
2018-09-14T10:55:51.663Z,99184.17
2018-09-14T10:58:56.729Z,99181.02
2018-09-14T11:02:01.762Z,99176.80
2018-09-14T11:05:06.900Z,99175.75
2018-09-14T11:08:11.933Z,99163.37
2018-09-14T11:11:16.937Z,99160.85
2018-09-14T11:14:21.990Z,99158.66
2018-09-14T11:17:27.911Z,99150.58
2018-09-14T11:20:33.029Z,99152.25
2018-09-14T11:23:38.270Z,99145.55
2018-09-14T11:26:43.302Z,99139.84
2018-09-14T11:29:48.322Z,99138.31
2018-09-14T11:32:53.328Z,99134.36
2018-09-14T11:35:58.295Z,99130.11
2018-09-14T11:39:05.456Z,99134.80
2018-09-14T11:42:10.437Z,99136.81
2018-09-14T11:45:15.528Z,99129.80
2018-09-14T11:48:20.473Z,99131.86
2018-09-14T11:51:25.467Z,99137.09
2018-09-14T11:54:31.189Z,99136.16
2018-09-14T11:57:36.360Z,99144.49
2018-09-14T12:00:41.309Z,99139.10
2018-09-14T12:03:46.478Z,99140.36
2018-09-14T12:06:51.488Z,99145.21
2018-09-14T12:09:56.513Z,99140.59
2018-09-14T12:13:01.549Z,99130.40
2018-09-14T12:16:06.625Z,99134.13
2018-09-14T12:19:11.634Z,99130.98
2018-09-14T12:22:16.644Z,99130.93
2018-09-14T12:25:21.749Z,99123.00
2018-09-14T12:28:26.726Z,99122.92
2018-09-14T12:31:31.656Z,99112.80
2018-09-14T12:34:36.609Z,99114.23
2018-09-14T12:37:41.573Z,99109.56
2018-09-14T12:40:46.587Z,99116.64
2018-09-14T12:43:51.565Z,99111.30
2018-09-14T12:46:56.521Z,99119.30
2018-09-14T12:50:01.773Z,99113.31
2018-09-14T12:53:07.022Z,99116.06
2018-09-14T12:56:12.071Z,99115.23
2018-09-14T12:59:17.120Z,99108.22
2018-09-14T13:02:22.536Z,99105.59
2018-09-14T13:05:27.609Z,99103.00
2018-09-14T13:08:32.626Z,99101.36
2018-09-14T13:11:38.125Z,99104.52
2018-09-14T13:14:43.143Z,99105.25
2018-09-14T13:17:48.361Z,99094.09
2018-09-14T13:20:53.518Z,99089.77
2018-09-14T13:23:58.547Z,99080.22
2018-09-14T13:27:03.546Z,99087.95
2018-09-14T13:30:08.654Z,99075.84
2018-09-14T13:33:13.682Z,99077.31
2018-09-14T13:36:18.709Z,99072.32
2018-09-14T13:39:24.299Z,99077.41
2018-09-14T13:42:29.398Z,99072.97
2018-09-14T13:45:34.406Z,99065.23
2018-09-14T13:48:39.413Z,99064.84
2018-09-14T13:51:44.476Z,99059.68
2018-09-14T13:54:49.478Z,99063.02
2018-09-14T13:57:54.578Z,99057.60
2018-09-14T14:00:59.680Z,99056.63
2018-09-14T14:04:04.913Z,99054.13
2018-09-14T14:07:09.888Z,99060.78
2018-09-14T14:10:14.945Z,99058.02
2018-09-14T14:13:19.898Z,99055.73
2018-09-14T14:16:24.929Z,99065.92
2018-09-14T14:19:29.896Z,99054.86
2018-09-14T14:22:34.878Z,99048.77
2018-09-14T14:25:39.891Z,99053.49
2018-09-14T14:28:44.880Z,99049.29
2018-09-14T14:31:50.038Z,99056.16
2018-09-14T14:34:55.042Z,99053.65
2018-09-14T14:38:00.019Z,99058.39
2018-09-14T14:41:05.058Z,99050.03
2018-09-14T14:44:10.066Z,99049.15
2018-09-14T14:47:15.127Z,99045.98
2018-09-14T14:50:20.425Z,99047.33
2018-09-14T14:53:26.333Z,99044.57
2018-09-14T14:56:32.504Z,99047.47
2018-09-14T14:59:37.579Z,99040.19
2018-09-14T15:02:42.559Z,99036.06
2018-09-14T15:05:47.546Z,99036.12
2018-09-14T15:08:52.541Z,99039.64
2018-09-14T15:11:57.509Z,99028.85
2018-09-14T15:15:02.493Z,99032.83
2018-09-14T15:18:07.494Z,99032.78
2018-09-14T15:21:12.533Z,99033.58
2018-09-14T15:24:17.516Z,99027.09
2018-09-14T15:27:22.493Z,99028.16
2018-09-14T15:30:27.470Z,99025.47
2018-09-14T15:33:32.525Z,99025.84
2018-09-14T15:36:37.637Z,99021.54
2018-09-14T15:39:42.678Z,99023.00
2018-09-14T15:42:48.157Z,99028.34
2018-09-14T15:45:53.201Z,99029.22
2018-09-14T15:48:58.310Z,99032.69
2018-09-14T15:52:03.367Z,99032.84
2018-09-14T15:55:08.421Z,99029.40
2018-09-14T15:58:14.069Z,99036.41
2018-09-14T16:01:19.385Z,99037.64
2018-09-14T16:04:24.569Z,99033.87
2018-09-14T16:07:29.671Z,99030.73
2018-09-14T16:10:34.650Z,99031.59
2018-09-14T16:13:39.659Z,99031.75
2018-09-14T16:16:44.624Z,99025.55
2018-09-14T16:19:49.825Z,99030.02
2018-09-14T16:22:54.817Z,99028.98
2018-09-14T16:25:59.770Z,99030.45
2018-09-14T16:32:23.221Z,99037.74
2018-09-14T16:35:28.235Z,99044.34
2018-09-14T16:38:33.391Z,99052.12
2018-09-14T16:41:38.593Z,99052.84
2018-09-14T16:47:55.937Z,99061.18
2018-09-14T16:51:00.975Z,99062.27
2018-09-14T16:54:06.167Z,99066.11
2018-09-14T16:57:11.168Z,99070.91
2018-09-14T17:00:16.557Z,99069.63
2018-09-14T17:03:21.823Z,99074.05
2018-09-14T17:06:26.788Z,99070.39
2018-09-14T17:09:31.919Z,99066.13
2018-09-14T17:12:37.110Z,99071.72
2018-09-14T17:15:42.057Z,99067.84
2018-09-14T17:18:47.570Z,99074.66
2018-09-14T17:21:52.686Z,99073.71
2018-09-14T17:24:57.946Z,99070.28
2018-09-14T17:28:03.208Z,99076.13
2018-09-14T17:31:08.350Z,99072.64
2018-09-14T17:34:13.394Z,99082.78
2018-09-14T17:37:18.426Z,99088.34
2018-09-14T17:40:23.872Z,99083.30
2018-09-14T17:43:28.860Z,99091.70
2018-09-14T17:46:33.863Z,99094.84
2018-09-14T17:49:38.813Z,99103.20
2018-09-14T17:52:43.910Z,99102.95
2018-09-14T17:55:48.977Z,99106.03
2018-09-14T17:58:53.917Z,99097.09
2018-09-14T18:01:58.867Z,99104.50
2018-09-14T18:05:04.173Z,99105.62
2018-09-14T18:08:09.113Z,99106.68
2018-09-14T18:11:14.429Z,99115.41
2018-09-14T18:14:19.390Z,99113.58
2018-09-14T18:17:24.632Z,99116.00
2018-09-14T18:20:29.778Z,99118.70
2018-09-14T18:23:34.861Z,99122.89
2018-09-14T18:26:39.793Z,99129.56
2018-09-14T18:29:45.223Z,99130.44
2018-09-14T18:32:50.414Z,99138.09
2018-09-14T18:35:55.477Z,99133.71
2018-09-14T18:39:00.777Z,99135.50
2018-09-14T18:42:05.881Z,99136.56
2018-09-14T18:45:12.286Z,99136.73
2018-09-14T18:48:17.402Z,99139.31
2018-09-14T18:51:22.422Z,99138.29
2018-09-14T18:54:27.417Z,99144.75
2018-09-14T18:57:32.373Z,99145.09
2018-09-14T19:00:37.731Z,99155.02
2018-09-14T19:03:42.720Z,99156.95
2018-09-14T19:06:47.715Z,99165.48
2018-09-14T19:09:53.212Z,99161.80
2018-09-14T19:12:58.189Z,99159.36
2018-09-14T19:16:03.459Z,99165.39
2018-09-14T19:19:08.867Z,99166.19
2018-09-14T19:22:14.034Z,99171.84
2018-09-14T19:25:19.313Z,99177.33
2018-09-14T19:28:24.484Z,99174.35
2018-09-14T19:31:29.498Z,99179.52
2018-09-14T19:37:51.261Z,99181.16
2018-09-14T19:40:56.601Z,99184.09
2018-09-14T19:44:01.913Z,99192.95
2018-09-14T19:47:07.321Z,99184.92
2018-09-14T19:50:12.791Z,99189.45
2018-09-14T19:53:17.914Z,99192.05
2018-09-14T19:56:23.013Z,99190.28
2018-09-14T19:59:28.285Z,99190.13
2018-09-14T20:02:33.257Z,99190.12
2018-09-14T20:05:38.521Z,99190.14
2018-09-14T20:08:43.513Z,99197.78
2018-09-14T20:11:48.535Z,99202.91
2018-09-14T20:14:53.905Z,99202.66
2018-09-14T20:17:58.862Z,99194.17
2018-09-14T20:21:04.214Z,99195.69
2018-09-14T20:24:09.191Z,99198.19
2018-09-14T20:27:14.138Z,99200.20
2018-09-14T20:30:19.091Z,99207.83
2018-09-14T20:33:24.194Z,99208.72
2018-09-14T20:36:29.144Z,99203.27
2018-09-14T20:39:34.590Z,99214.78
2018-09-14T20:42:39.577Z,99211.61
2018-09-14T20:45:44.936Z,99206.89
2018-09-14T20:48:49.905Z,99210.20
2018-09-14T20:51:55.202Z,99204.86
2018-09-14T20:55:00.192Z,99210.25
2018-09-14T20:58:05.370Z,99207.94
2018-09-14T21:01:10.404Z,99208.15
2018-09-14T21:04:15.555Z,99211.70
2018-09-14T21:07:20.618Z,99219.39
2018-09-14T21:10:25.715Z,99221.52
2018-09-14T21:13:30.754Z,99214.77
2018-09-14T21:16:35.812Z,99218.95
2018-09-14T21:19:40.856Z,99221.02
2018-09-14T21:22:45.987Z,99225.95
2018-09-14T21:25:50.904Z,99228.23
2018-09-14T21:28:55.878Z,99241.95
2018-09-14T21:32:01.225Z,99247.66
2018-09-14T21:35:06.261Z,99246.83
2018-09-14T21:38:11.401Z,99246.66
2018-09-14T21:41:16.646Z,99252.91
2018-09-14T21:44:21.893Z,99264.07
2018-09-14T21:47:27.157Z,99256.91
2018-09-14T21:50:32.130Z,99260.02
2018-09-14T21:53:37.571Z,99275.14
2018-09-14T21:56:42.827Z,99271.31
2018-09-14T22:03:28.975Z,99284.83
2018-09-14T22:06:34.053Z,99286.64
2018-09-14T22:09:39.224Z,99279.05
2018-09-14T22:12:44.757Z,99278.23
2018-09-14T22:15:49.948Z,99272.58
2018-09-14T22:18:55.078Z,99276.89
2018-09-14T22:22:00.099Z,99273.02
2018-09-14T22:25:05.290Z,99282.31
2018-09-14T22:28:10.266Z,99281.78
2018-09-14T22:31:15.242Z,99292.36
2018-09-14T22:34:20.381Z,99295.28
2018-09-14T22:37:25.391Z,99291.38
2018-09-14T22:40:30.360Z,99298.25
2018-09-14T22:43:35.345Z,99298.84
2018-09-14T22:46:40.312Z,99294.15
2018-09-14T22:49:45.261Z,99293.15
2018-09-14T22:52:50.377Z,99298.42
2018-09-14T22:55:55.321Z,99309.87
2018-09-14T22:59:00.324Z,99307.98
2018-09-14T23:02:05.385Z,99298.51
2018-09-14T23:05:10.340Z,99303.35
2018-09-14T23:08:15.278Z,99313.97
2018-09-14T23:11:20.210Z,99312.85
2018-09-14T23:14:25.165Z,99318.54
2018-09-14T23:17:30.129Z,99325.00
2018-09-14T23:20:35.118Z,99324.42
2018-09-14T23:23:40.049Z,99328.06
2018-09-14T23:26:45.080Z,99328.44
2018-09-14T23:29:50.024Z,99332.68
2018-09-14T23:32:55.014Z,99331.84
2018-09-14T23:35:59.924Z,99323.36
2018-09-14T23:39:07.293Z,99326.31
2018-09-14T23:42:12.233Z,99337.84
2018-09-14T23:45:17.188Z,99340.70
2018-09-14T23:48:22.130Z,99341.50
2018-09-14T23:51:27.077Z,99341.27
2018-09-14T23:54:32.016Z,99353.12
2018-09-14T23:57:36.993Z,99350.81
